Terminal Aerodrome Forecast
Issued by NWS Duluth, MN

Home | Current Version | Previous Version | Text Only | Print | Product List | Glossary On
Versions: 1 2 3 4 5 6 7 8 9 10 11 12 13 14 15 16 17 18 19 20 21 22 23
000
FTUS43 KDLH 281352 AAB
TAFDLH
TAF AMD
KDLH 281352Z 2814/2912 13009KT P6SM -RA OVC012
     FM281600 16015KT P6SM -RA SCT015 OVC040
     FM281800 18012G20KT P6SM VCSH BKN050 BKN100
     FM282000 18012G20KT P6SM VCTS BKN050CB
      TEMPO 2821/2824 -TSRA BKN050CB
     FM290000 22015KT P6SM FEW050
     FM290500 25015KT P6SM SKC=

USA.gov is the U.S. government's official web portal to all federal, state and local government web resources and services.